Terminal Aerodrome Forecast
Issued by NWS Brownsville, TX

Home | Current Version | Previous Version | Text Only | Print | Product List | Glossary On
Versions: 1 2 3 4 5 6 7 8 9 10 11 12
000
FTUS44 KBRO 281123
TAFMFE
TAF
KMFE 281123Z 2812/2912 16005KT P6SM SKC
      TEMPO 2812/2814 3SM BR
     FM281700 14015G20KT P6SM SKC
     FM290100 15010KT P6SM SKC=

USA.gov is the U.S. government's official web portal to all federal, state and local government web resources and services.